Fleet, Kentucky
Current Conditions -  °F | °C
As of 1:35 AM on Saturday 01 Nov 2014 (Local Time) from KGLW Reporting Station
Light Snow Light Snow  
Wind Chill: 24°   Ceiling: 800
Heat Index: 33°   Visibility: 3mi
Dew Point: 33°   Wind: 13mph
Humidity: 100%   Direction: 330°NNW
Pressure: 30.1"   Gusts: 21mph
Location:  36.6549°N, 85.8315°W
Report Text: KGLW 010635Z AUTO 33011G18KT 3SM -SN OVC008 01/01 A3010 RMK AO2 P0002 T00070007
Loading
Personal Weather Stations






























Interactive Weather Map
Tropical Storm Tracking
New forecast layout! Learn more

10-Day Weather Forecast

Advertisements
Track Severe Weather on mobile